Time;durP1;ratioP1;P1;durP2;ratioP2;P2;SDS_P1;SDS_P2;PMS_P1;PMS_P2;Temp;Humidity;BMP_temperature;BMP_pressure;BME280_temperature;BME280_humidity;BME280_pressure;Samples;Min_cycle;Max_cycle;Signal;HPM_P1;HPM_P2
2022/12/27 00:01:21;;;;;;;32.33;18.63;;;;;;;6.62;100.00;99460.47;4993318;23;21013;-74
2022/12/27 00:03:48;;;;;;;35.17;18.33;;;;;;;6.61;100.00;99464.09;4995785;23;20378;-75
2022/12/27 00:06:18;;;;;;;34.03;18.17;;;;;;;6.59;100.00;99460.75;5006332;23;20212;-76
2022/12/27 00:08:46;;;;;;;30.90;18.30;;;;;;;6.63;100.00;99456.03;5014164;23;21038;-75
2022/12/27 00:11:15;;;;;;;39.83;19.43;;;;;;;6.65;100.00;99460.19;4981534;23;20592;-73
2022/12/27 00:13:42;;;;;;;35.87;18.90;;;;;;;6.70;100.00;99460.59;5013624;23;23070;-76
2022/12/27 00:16:11;;;;;;;30.30;17.37;;;;;;;6.66;100.00;99466.31;5001551;23;20599;-75
2022/12/27 00:18:38;;;;;;;31.03;18.13;;;;;;;6.63;100.00;99456.84;5041709;23;20206;-74
2022/12/27 00:21:06;;;;;;;32.43;17.50;;;;;;;6.65;100.00;99454.03;5002180;23;22110;-73
2022/12/27 00:23:38;;;;;;;30.17;16.53;;;;;;;6.66;100.00;99451.28;4997824;23;23239;-76
2022/12/27 00:26:15;;;;;;;31.83;17.03;;;;;;;6.68;100.00;99451.13;5030302;22;21362;-76
2022/12/27 00:28:42;;;;;;;30.77;16.30;;;;;;;6.69;100.00;99448.31;5005247;23;20209;-73
2022/12/27 00:31:09;;;;;;;29.13;16.30;;;;;;;6.69;100.00;99450.97;5019305;23;20224;-76
2022/12/27 00:33:38;;;;;;;29.47;16.73;;;;;;;6.69;100.00;99456.25;4993866;23;20209;-75
2022/12/27 00:36:06;;;;;;;30.83;17.60;;;;;;;6.64;100.00;99450.56;5000863;23;20221;-74
2022/12/27 00:38:33;;;;;;;30.70;17.00;;;;;;;6.67;100.00;99450.31;5002814;23;21322;-76
2022/12/27 00:41:00;;;;;;;30.97;16.63;;;;;;;6.65;100.00;99449.63;5016578;23;21135;-74
2022/12/27 00:43:26;;;;;;;28.07;16.17;;;;;;;6.68;100.00;99454.59;5007176;23;20385;-74
2022/12/27 00:45:53;;;;;;;29.00;16.43;;;;;;;6.72;100.00;99450.69;5002010;23;20232;-73
2022/12/27 00:48:20;;;;;;;29.67;16.47;;;;;;;6.65;100.00;99469.91;5016023;23;20212;-74
2022/12/27 00:50:46;;;;;;;30.50;15.63;;;;;;;6.61;100.00;99458.81;5012539;23;20396;-74
2022/12/27 00:53:13;;;;;;;38.47;16.70;;;;;;;6.60;100.00;99465.03;5008493;23;20205;-75
2022/12/27 00:55:43;;;;;;;29.43;16.87;;;;;;;6.64;100.00;99460.31;5017806;23;20206;-74
2022/12/27 00:58:10;;;;;;;34.60;16.20;;;;;;;6.71;100.00;99462.25;5007116;23;21174;-73
2022/12/27 01:00:36;;;;;;;33.20;16.93;;;;;;;6.66;100.00;99461.84;5004390;22;20299;-73
2022/12/27 01:03:03;;;;;;;29.50;16.73;;;;;;;6.66;100.00;99461.84;5013300;23;20668;-72
2022/12/27 01:05:30;;;;;;;32.20;16.53;;;;;;;6.76;100.00;99467.91;5013145;23;20213;-73
2022/12/27 01:07:56;;;;;;;28.20;16.30;;;;;;;6.71;100.00;99459.59;5012440;23;21096;-74
2022/12/27 01:10:23;;;;;;;31.60;16.53;;;;;;;6.67;100.00;99460.03;5009204;23;21882;-75
2022/12/27 01:12:49;;;;;;;32.40;16.67;;;;;;;6.77;100.00;99455.56;5011085;23;20352;-74
2022/12/27 01:15:16;;;;;;;25.00;14.77;;;;;;;6.72;100.00;99463.09;5014104;23;20214;-73
2022/12/27 01:17:42;;;;;;;27.77;15.97;;;;;;;6.69;100.00;99450.97;5020493;23;20615;-72
2022/12/27 01:20:09;;;;;;;25.50;14.47;;;;;;;6.69;100.00;99453.63;5009718;23;21586;-73
2022/12/27 01:22:35;;;;;;;28.43;14.07;;;;;;;6.75;100.00;99452.22;4998615;23;20319;-74
2022/12/27 01:25:02;;;;;;;23.47;14.20;;;;;;;6.68;100.00;99459.88;5018914;23;20630;-74
2022/12/27 01:27:29;;;;;;;26.03;14.07;;;;;;;6.72;100.00;99453.34;5020036;23;20261;-71
2022/12/27 01:29:55;;;;;;;24.27;14.03;;;;;;;6.71;100.00;99451.66;4992951;23;20220;-72
2022/12/27 01:32:22;;;;;;;28.83;14.60;;;;;;;6.66;100.00;99445.97;4992942;23;20202;-73
2022/12/27 01:34:49;;;;;;;26.40;13.03;;;;;;;6.66;100.00;99440.69;5108076;22;22948;-74
2022/12/27 01:37:16;;;;;;;26.27;14.37;;;;;;;6.78;100.00;99454.56;5015978;23;20500;-73
2022/12/27 01:39:43;;;;;;;26.53;13.50;;;;;;;6.78;100.00;99459.84;4996354;23;20205;-73
2022/12/27 01:45:19;;;;;;;20.20;12.37;;;;;;;6.73;100.00;99462.09;5026351;23;20205;-73
2022/12/27 01:48:04;;;;;;;21.03;12.40;;;;;;;6.75;100.00;99462.78;5030058;23;20209;-72
2022/12/27 01:50:45;;;;;;;21.73;12.23;;;;;;;6.76;100.00;99456.53;5045096;23;20209;-73
2022/12/27 01:53:19;;;;;;;23.67;12.30;;;;;;;6.76;100.00;99454.69;5021462;23;20375;-73
2022/12/27 01:55:49;;;;;;;18.07;11.20;;;;;;;6.73;100.00;99452.34;5013051;23;20216;-74
2022/12/27 01:58:21;;;;;;;20.67;12.40;;;;;;;6.68;100.00;99449.31;5066503;23;20213;-73
2022/12/27 02:00:48;;;;;;;18.37;10.67;;;;;;;6.68;100.00;99446.69;5042479;22;21634;-73
2022/12/27 02:03:26;;;;;;;20.10;10.77;;;;;;;6.71;100.00;99448.19;4997526;23;26254;-73
2022/12/27 02:05:53;;;;;;;21.40;11.13;;;;;;;6.71;100.00;99448.19;5016805;23;20235;-78
2022/12/27 02:08:34;;;;;;;18.60;10.90;;;;;;;6.68;100.00;99437.91;4991389;23;20209;-73
2022/12/27 02:11:02;;;;;;;19.07;10.40;;;;;;;6.70;100.00;99447.38;5099931;22;22988;-74
2022/12/27 02:13:32;;;;;;;18.90;11.03;;;;;;;6.69;100.00;99443.03;5022904;23;20220;-75
2022/12/27 02:15:58;;;;;;;16.43;10.10;;;;;;;6.72;100.00;99442.78;4998254;23;20210;-74
2022/12/27 02:18:25;;;;;;;17.13;9.87;;;;;;;6.75;100.00;99445.13;5035645;23;20242;-76
2022/12/27 02:21:17;;;;;;;20.00;9.83;;;;;;;6.72;100.00;99445.41;5013740;23;20205;-73
2022/12/27 02:24:02;;;;;;;16.90;9.17;;;;;;;6.65;100.00;99452.25;5085569;23;21296;-74
2022/12/27 02:26:51;;;;;;;17.23;9.30;;;;;;;6.62;100.00;99444.59;5054027;23;20205;-73
2022/12/27 02:29:33;;;;;;;17.03;9.33;;;;;;;6.69;100.00;99448.31;5001362;23;20205;-73
2022/12/27 02:32:04;;;;;;;19.30;9.40;;;;;;;6.67;100.00;99446.81;5019483;23;20208;-73
2022/12/27 02:34:50;;;;;;;15.83;9.40;;;;;;;6.69;100.00;99450.97;5030518;23;20201;-75
2022/12/27 02:37:20;;;;;;;16.43;9.43;;;;;;;6.60;100.00;99456.28;5017002;23;20297;-72
2022/12/27 02:39:47;;;;;;;18.17;9.50;;;;;;;6.57;100.00;99457.41;5019836;23;20221;-75
2022/12/27 02:54:01;;;;;;;18.23;10.13;;;;;;;6.46;100.00;99461.06;5073180;22;22043;-73
2022/12/27 03:03:20;;;;;;;20.70;11.23;;;;;;;6.32;100.00;99470.28;5075526;22;25579;-73
2022/12/27 03:06:38;;;;;;;19.30;10.83;;;;;;;6.23;100.00;99468.47;5046448;22;25717;-74
2022/12/27 03:09:10;;;;;;;21.87;11.37;;;;;;;6.26;100.00;99473.47;5032757;23;20212;-72
2022/12/27 03:17:43;;;;;;;12.77;6.77;;;;;;;5.83;100.00;99532.81;5048609;23;21654;-72
2022/12/27 03:25:47;;;;;;;5.70;2.93;;;;;;;4.98;100.00;99563.03;5016013;23;20210;-74
2022/12/27 03:39:55;;;;;;;5.43;0.97;;;;;;;3.52;100.00;99585.53;4991568;23;20252;-74
2022/12/27 03:45:09;;;;;;;4.70;0.87;;;;;;;3.33;100.00;99615.06;4996318;23;21692;-75
2022/12/27 03:47:48;;;;;;;8.30;1.33;;;;;;;3.25;100.00;99614.81;4997333;23;21336;-74
2022/12/27 03:50:24;;;;;;;6.80;1.50;;;;;;;3.15;100.00;99621.75;5006931;23;20261;-75
2022/12/27 03:53:20;;;;;;;6.73;1.30;;;;;;;3.09;100.00;99602.03;5024667;23;20307;-73
2022/12/27 03:55:47;;;;;;;6.20;0.97;;;;;;;3.10;100.00;99629.16;5037201;23;22021;-75
2022/12/27 03:58:14;;;;;;;9.07;0.93;;;;;;;3.09;100.00;99641.47;4997714;23;21604;-74
2022/12/27 04:00:41;;;;;;;7.20;1.30;;;;;;;2.96;100.00;99646.78;4989729;23;20210;-74
2022/12/27 04:03:07;;;;;;;12.63;1.20;;;;;;;2.97;100.00;99652.88;4979166;23;21257;-73
2022/12/27 04:05:34;;;;;;;8.40;1.13;;;;;;;2.90;100.00;99649.03;4984586;23;21709;-73
2022/12/27 04:35:32;;;;;;;12.07;1.53;;;;;;;2.96;100.00;99685.38;4999572;23;20213;-72
2022/12/27 04:37:58;;;;;;;7.17;1.00;;;;;;;2.91;100.00;99698.03;4985027;23;23561;-73
2022/12/27 04:57:04;;;;;;;11.40;1.47;;;;;;;2.74;100.00;99722.94;5046319;23;20308;-72
2022/12/27 05:02:17;;;;;;;7.63;1.90;;;;;;;2.86;100.00;99729.91;5039478;23;20202;-72
2022/12/27 05:04:45;;;;;;;8.00;1.40;;;;;;;2.81;100.00;99739.06;5002761;23;20217;-71
2022/12/27 05:15:31;;;;;;;29.20;7.60;;;;;;;2.58;100.00;99754.72;5092606;23;20206;-71
2022/12/27 05:17:57;;;;;;;26.93;7.10;;;;;;;2.57;100.00;99760.06;4995075;23;20299;-72
2022/12/27 05:20:24;;;;;;;18.60;4.57;;;;;;;2.49;100.00;99758.00;4994245;23;20312;-71
2022/12/27 05:25:41;;;;;;;12.50;1.87;;;;;;;2.47;100.00;99758.09;5037146;23;26438;-72
2022/12/27 05:28:09;;;;;;;11.93;1.80;;;;;;;2.39;100.00;99770.97;5037626;23;20214;-73
2022/12/27 05:30:37;;;;;;;12.23;2.03;;;;;;;2.40;100.00;99770.00;4992945;23;20283;-72
2022/12/27 05:33:04;;;;;;;15.03;2.37;;;;;;;2.32;100.00;99769.72;5000717;23;20241;-71
2022/12/27 05:35:32;;;;;;;15.23;1.80;;;;;;;2.33;100.00;99772.22;4989167;23;20202;-74
2022/12/27 05:37:59;;;;;;;9.77;1.90;;;;;;;2.20;100.00;99783.69;5013941;23;20425;-72
2022/12/27 05:40:25;;;;;;;10.90;1.90;;;;;;;2.18;100.00;99793.44;4985123;23;23408;-72
2022/12/27 05:42:52;;;;;;;16.90;2.47;;;;;;;2.10;100.00;99794.81;4991524;23;20206;-73
2022/12/27 05:45:19;;;;;;;18.37;2.67;;;;;;;2.08;100.00;99794.13;4994192;23;20275;-70
2022/12/27 05:47:45;;;;;;;20.87;2.37;;;;;;;1.99;100.00;99794.75;5043859;23;20396;-72
2022/12/27 05:50:12;;;;;;;14.77;2.47;;;;;;;1.89;100.00;99805.03;4982061;23;21368;-73
2022/12/27 05:52:39;;;;;;;21.20;2.47;;;;;;;1.91;100.00;99810.19;4994191;23;20213;-71
2022/12/27 05:55:07;;;;;;;13.90;1.90;;;;;;;1.87;100.00;99801.69;4988291;23;20384;-72
2022/12/27 05:57:34;;;;;;;15.17;2.53;;;;;;;1.88;100.00;99802.53;4998960;23;20266;-72
2022/12/27 06:00:00;;;;;;;11.93;2.50;;;;;;;1.80;100.00;99815.31;4996694;23;20202;-71
2022/12/27 06:02:27;;;;;;;11.47;2.23;;;;;;;1.88;100.00;99831.38;4988362;23;21038;-72
2022/12/27 06:04:53;;;;;;;12.27;2.43;;;;;;;1.82;100.00;99830.00;5014444;23;20344;-72
2022/12/27 06:07:20;;;;;;;16.27;3.70;;;;;;;1.74;100.00;99839.34;4990035;23;20384;-71
2022/12/27 06:09:46;;;;;;;16.97;3.67;;;;;;;1.80;100.00;99841.53;4999544;23;20263;-72
2022/12/27 06:12:13;;;;;;;26.20;3.90;;;;;;;1.77;100.00;99842.59;4983672;23;21095;-72
2022/12/27 06:14:40;;;;;;;14.73;2.53;;;;;;;1.79;100.00;99839.88;5001675;23;20267;-73
2022/12/27 06:17:06;;;;;;;20.53;4.00;;;;;;;1.73;100.00;99840.28;4997538;23;26929;-71
2022/12/27 06:19:33;;;;;;;21.23;2.80;;;;;;;1.69;100.00;99843.13;5010700;23;20752;-72
2022/12/27 06:21:59;;;;;;;18.20;2.50;;;;;;;1.64;100.00;99849.63;4992903;23;20618;-71
2022/12/27 06:24:26;;;;;;;14.40;2.30;;;;;;;1.60;100.00;99843.72;5000759;23;20207;-71
2022/12/27 06:26:52;;;;;;;15.50;2.63;;;;;;;1.57;100.00;99853.56;4991366;23;21223;-72
2022/12/27 06:29:19;;;;;;;16.43;3.03;;;;;;;1.45;100.00;99852.59;4998874;23;20832;-71
2022/12/27 06:31:46;;;;;;;13.07;2.97;;;;;;;1.46;100.00;99854.31;5056424;23;20285;-72
2022/12/27 06:34:12;;;;;;;13.10;2.27;;;;;;;1.37;100.00;99870.63;4973925;23;20221;-74
2022/12/27 06:36:39;;;;;;;17.97;3.10;;;;;;;1.39;100.00;99871.38;4997952;23;20400;-73
2022/12/27 06:39:05;;;;;;;18.20;3.00;;;;;;;1.41;100.00;99872.13;4998811;23;20217;-73
2022/12/27 06:41:32;;;;;;;25.23;3.20;;;;;;;1.38;100.00;99878.41;5000429;23;21210;-73
2022/12/27 06:43:59;;;;;;;10.73;3.00;;;;;;;1.40;100.00;99880.91;4988392;23;20261;-73
2022/12/27 06:46:25;;;;;;;29.93;4.37;;;;;;;1.40;100.00;99889.59;4996415;23;20583;-73
2022/12/27 06:48:52;;;;;;;14.73;3.90;;;;;;;1.40;100.00;99888.78;5002474;23;21463;-74
2022/12/27 06:51:20;;;;;;;20.93;3.83;;;;;;;1.40;100.00;99886.16;4997088;23;20215;-72
2022/12/27 06:53:47;;;;;;;10.77;3.30;;;;;;;1.41;100.00;99890.47;4983484;23;21288;-72
2022/12/27 06:56:17;;;;;;;15.67;3.77;;;;;;;1.42;100.00;99894.75;5081627;23;22519;-72
2022/12/27 06:58:45;;;;;;;15.33;3.53;;;;;;;1.47;100.00;99895.28;5009979;23;20294;-72
2022/12/27 07:01:15;;;;;;;24.17;2.97;;;;;;;1.46;100.00;99907.56;4977707;23;20649;-71
2022/12/27 07:03:42;;;;;;;14.77;3.87;;;;;;;1.40;100.00;99904.50;4993293;23;20645;-71
2022/12/27 07:06:10;;;;;;;22.20;3.53;;;;;;;1.39;100.00;99910.69;5025434;23;20545;-72
2022/12/27 07:08:37;;;;;;;18.13;4.13;;;;;;;1.40;100.00;99917.59;5007686;23;21197;-72
2022/12/27 07:11:06;;;;;;;17.93;4.40;;;;;;;1.47;100.00;99930.25;4994089;23;22208;-71
2022/12/27 07:13:34;;;;;;;20.13;4.33;;;;;;;1.51;100.00;99930.03;5020036;23;21259;-73
2022/12/27 07:16:04;;;;;;;24.23;3.63;;;;;;;1.49;100.00;99935.38;5005104;23;22738;-72
2022/12/27 07:18:31;;;;;;;21.87;4.87;;;;;;;1.49;100.00;99937.97;5016712;23;20225;-74
2022/12/27 07:20:58;;;;;;;21.83;4.43;;;;;;;1.43;100.00;99949.72;5019762;23;20207;-73
2022/12/27 07:23:24;;;;;;;18.57;4.03;;;;;;;1.47;100.00;99942.47;5097665;23;20203;-73
2022/12/27 07:25:51;;;;;;;23.93;4.37;;;;;;;1.53;100.00;99942.09;5072591;23;20862;-73
2022/12/27 07:28:21;;;;;;;16.40;3.10;;;;;;;1.48;100.00;99947.63;5000247;23;22000;-72
2022/12/27 07:30:47;;;;;;;15.60;2.70;;;;;;;1.63;100.00;99948.41;5005005;23;22033;-74
2022/12/27 07:33:14;;;;;;;23.43;3.50;;;;;;;1.64;100.00;99952.75;5005764;23;20289;-75
2022/12/27 07:35:40;;;;;;;20.73;2.90;;;;;;;1.61;100.00;99973.91;5001857;23;21303;-74
2022/12/27 07:38:10;;;;;;;12.90;2.80;;;;;;;1.65;100.00;99972.75;5003253;23;20202;-71
2022/12/27 07:40:37;;;;;;;18.30;3.07;;;;;;;1.78;100.00;99969.34;5017244;23;20210;-73
2022/12/27 07:43:04;;;;;;;23.03;3.30;;;;;;;1.70;100.00;99964.59;4997715;23;21722;-72
2022/12/27 07:45:31;;;;;;;16.20;2.63;;;;;;;1.66;100.00;99974.47;5015234;23;20213;-74
2022/12/27 07:47:58;;;;;;;11.33;2.60;;;;;;;1.66;100.00;99984.94;5001504;23;20252;-73
2022/12/27 07:50:24;;;;;;;14.60;2.90;;;;;;;1.69;100.00;99986.53;4986134;23;20660;-72
2022/12/27 07:52:51;;;;;;;24.20;4.23;;;;;;;1.77;100.00;99989.47;4984533;23;20348;-71
2022/12/27 07:55:18;;;;;;;19.80;3.70;;;;;;;1.86;100.00;99988.06;4995434;23;20583;-73
2022/12/27 07:57:45;;;;;;;13.47;4.27;;;;;;;1.80;100.00;99988.44;4982748;23;20233;-71
2022/12/27 08:00:12;;;;;;;25.57;4.67;;;;;;;1.88;100.00;99986.16;4999448;23;20289;-72
2022/12/27 08:02:38;;;;;;;19.27;5.00;;;;;;;1.87;100.00;99990.59;4999300;23;20758;-71
2022/12/27 08:05:05;;;;;;;20.00;3.70;;;;;;;1.89;100.00;99993.09;5014064;23;20363;-72
2022/12/27 08:07:32;;;;;;;24.00;3.67;;;;;;;1.98;100.00;100000.34;5023635;23;21678;-70
2022/12/27 08:09:59;;;;;;;15.97;3.17;;;;;;;2.02;100.00;100008.88;4980608;23;25461;-73
2022/12/27 08:12:25;;;;;;;14.17;4.27;;;;;;;2.11;100.00;100008.28;5003861;23;20289;-73
2022/12/27 08:14:52;;;;;;;17.00;4.00;;;;;;;2.18;100.00;100024.44;4997020;23;20224;-74
2022/12/27 08:17:20;;;;;;;20.33;4.07;;;;;;;2.20;100.00;100030.44;4991700;23;21466;-72
2022/12/27 08:19:50;;;;;;;18.30;3.87;;;;;;;2.28;100.00;100030.78;4990292;23;20830;-72
2022/12/27 08:22:16;;;;;;;18.17;4.00;;;;;;;2.35;100.00;100037.31;5016222;23;20551;-72
2022/12/27 08:24:43;;;;;;;19.30;3.67;;;;;;;2.37;100.00;100043.28;5006963;23;20213;-73
2022/12/27 08:27:10;;;;;;;25.47;4.00;;;;;;;2.42;100.00;100041.19;4994088;23;20615;-72
2022/12/27 08:29:37;;;;;;;20.47;4.00;;;;;;;2.56;100.00;100048.16;4977433;23;21766;-73
2022/12/27 08:32:04;;;;;;;23.70;4.13;;;;;;;2.57;100.00;100047.19;5014482;23;20250;-71
2022/12/27 08:34:31;;;;;;;23.87;4.17;;;;;;;2.63;100.00;100036.28;5002829;23;20481;-71
2022/12/27 08:36:57;;;;;;;21.03;4.17;;;;;;;2.81;100.00;100055.22;4983335;23;20369;-71
2022/12/27 08:39:24;;;;;;;14.93;3.90;;;;;;;2.87;100.00;100060.03;5019142;23;20241;-70
2022/12/27 08:41:53;;;;;;;15.70;3.97;;;;;;;2.88;100.00;100061.75;4984271;23;21564;-71
2022/12/27 08:44:20;;;;;;;15.67;4.27;;;;;;;2.96;100.00;100062.03;4999557;23;20213;-72
2022/12/27 08:46:46;;;;;;;15.27;4.50;;;;;;;3.01;100.00;100066.13;5027673;23;20206;-72
2022/12/27 08:49:13;;;;;;;21.17;4.43;;;;;;;3.10;100.00;100068.13;4994677;23;20261;-73
2022/12/27 08:51:39;;;;;;;15.17;3.23;;;;;;;3.06;100.00;100064.88;4979738;23;20273;-69
2022/12/27 08:54:07;;;;;;;19.03;3.57;;;;;;;3.01;100.00;100059.09;4964860;23;20212;-71
2022/12/27 08:56:34;;;;;;;18.97;3.63;;;;;;;3.00;100.00;100077.59;4996396;23;20217;-71
2022/12/27 08:59:00;;;;;;;14.67;3.70;;;;;;;3.02;100.00;100073.94;5015183;23;21517;-72
2022/12/27 09:01:27;;;;;;;16.93;4.00;;;;;;;3.00;100.00;100075.81;5004570;23;20243;-73
2022/12/27 09:03:54;;;;;;;18.63;3.53;;;;;;;3.05;100.00;100086.03;4974214;23;20330;-69
2022/12/27 09:06:22;;;;;;;15.20;3.00;;;;;;;3.05;100.00;100083.38;5022760;23;20202;-69
2022/12/27 09:08:50;;;;;;;25.40;3.77;;;;;;;3.01;100.00;100092.44;4973278;23;25667;-70
2022/12/27 09:11:25;;;;;;;24.97;3.20;;;;;;;3.02;100.00;100088.84;4987293;23;22098;-69
2022/12/27 09:13:52;;;;;;;22.20;3.70;;;;;;;2.99;100.00;100095.16;4997248;23;20210;-70
2022/12/27 09:16:21;;;;;;;15.70;3.10;;;;;;;3.01;100.00;100092.44;4993035;23;20210;-67
2022/12/27 09:18:50;;;;;;;18.07;2.93;;;;;;;3.05;100.00;100092.13;4990917;23;20285;-69
2022/12/27 09:21:18;;;;;;;21.57;3.73;;;;;;;3.00;100.00;100095.97;5025548;23;22557;-68
2022/12/27 09:23:46;;;;;;;14.93;3.23;;;;;;;2.99;100.00;100099.56;4978355;23;22018;-69
2022/12/27 09:26:17;;;;;;;15.63;3.03;;;;;;;3.03;100.00;100091.38;4979004;23;20209;-71
2022/12/27 09:28:45;;;;;;;16.97;2.90;;;;;;;3.10;100.00;100097.06;5015948;23;20551;-70
2022/12/27 09:31:13;;;;;;;12.50;3.40;;;;;;;3.01;100.00;100092.44;4982811;23;20380;-68
2022/12/27 09:33:39;;;;;;;17.67;4.47;;;;;;;3.05;100.00;100088.66;5003089;23;20225;-68
2022/12/27 09:36:11;;;;;;;17.37;3.40;;;;;;;3.18;100.00;100094.72;4995241;23;25535;-69
2022/12/27 09:38:38;;;;;;;15.63;3.13;;;;;;;3.32;100.00;100091.97;5007755;23;20332;-68
2022/12/27 09:41:15;;;;;;;12.63;3.57;;;;;;;3.23;100.00;100095.28;5023266;23;21088;-71
2022/12/27 09:44:22;;;;;;;21.50;3.50;;;;;;;3.31;100.00;100097.34;4994836;23;20207;-70
2022/12/27 09:46:58;;;;;;;14.50;3.73;;;;;;;3.33;100.00;100098.94;5054624;23;20300;-69
2022/12/27 09:49:37;;;;;;;18.40;3.57;;;;;;;3.27;100.00;100101.97;4979256;23;20206;-70
2022/12/27 09:52:15;;;;;;;17.23;3.90;;;;;;;3.27;100.00;100109.03;5004453;23;20385;-68
2022/12/27 09:54:43;;;;;;;18.17;4.33;;;;;;;3.32;100.00;100099.84;5049449;23;20202;-68
2022/12/27 09:57:42;;;;;;;17.87;4.07;;;;;;;3.30;100.00;100103.53;5018068;23;20232;-70
2022/12/27 10:00:22;;;;;;;16.60;4.20;;;;;;;3.29;100.00;100110.59;5020988;23;20680;-67
2022/12/27 10:03:05;;;;;;;19.93;4.50;;;;;;;3.22;100.00;100111.13;5009173;23;20264;-67
2022/12/27 10:05:33;;;;;;;18.87;5.13;;;;;;;3.19;100.00;100108.72;4990904;23;21742;-69
2022/12/27 10:08:24;;;;;;;14.17;4.70;;;;;;;3.26;100.00;100110.00;4984975;23;21554;-68
2022/12/27 10:11:34;;;;;;;17.73;4.63;;;;;;;3.30;100.00;100120.19;5014622;23;21592;-67
2022/12/27 10:13:57;;;;;;;15.73;4.43;;;;;;;3.30;100.00;100114.94;5023586;23;20213;-67
2022/12/27 10:16:39;;;;;;;20.47;4.63;;;;;;;3.37;100.00;100125.84;4997654;23;21173;-71
2022/12/27 10:19:34;;;;;;;22.43;3.80;;;;;;;3.35;100.00;100125.97;5015248;23;20208;-69
2022/12/27 10:22:04;;;;;;;23.27;4.50;;;;;;;3.44;100.00;100127.13;4964181;23;20209;-70
2022/12/27 10:24:43;;;;;;;12.10;5.17;;;;;;;3.49;100.00;100129.41;5002803;23;20660;-70
2022/12/27 10:27:15;;;;;;;21.70;4.20;;;;;;;3.55;100.00;100123.72;4992236;23;20326;-69
2022/12/27 10:29:42;;;;;;;17.27;3.70;;;;;;;3.53;100.00;100120.34;5013125;23;20209;-70
2022/12/27 10:32:11;;;;;;;13.30;3.60;;;;;;;3.55;100.00;100121.09;4992379;23;20260;-73
2022/12/27 10:34:38;;;;;;;20.13;3.80;;;;;;;3.57;100.00;100125.28;5008145;23;20260;-68
2022/12/27 10:37:04;;;;;;;12.97;3.83;;;;;;;3.56;100.00;100118.38;4997028;23;20287;-68
2022/12/27 10:39:35;;;;;;;14.07;3.83;;;;;;;3.58;100.00;100116.47;5019753;23;20464;-69
2022/12/27 10:42:23;;;;;;;15.30;3.93;;;;;;;3.69;100.00;100126.22;4998721;23;21571;-68
2022/12/27 10:44:49;;;;;;;18.93;3.90;;;;;;;3.70;100.00;100133.19;5058041;23;20226;-68
2022/12/27 10:47:16;;;;;;;17.53;4.27;;;;;;;3.65;100.00;100135.28;4982121;23;20691;-67
2022/12/27 10:50:05;;;;;;;17.23;4.40;;;;;;;3.67;100.00;100133.38;4984882;23;20628;-69
2022/12/27 10:52:33;;;;;;;18.53;5.00;;;;;;;3.63;100.00;100137.19;5033202;23;22290;-69
2022/12/27 10:54:59;;;;;;;13.80;5.23;;;;;;;3.62;100.00;100130.22;4961529;23;20206;-67
2022/12/27 10:57:28;;;;;;;15.07;4.43;;;;;;;3.65;100.00;100137.06;4996716;23;20612;-67
2022/12/27 11:00:20;;;;;;;16.50;5.37;;;;;;;3.59;100.00;100133.94;4979042;23;21708;-70
2022/12/27 11:02:56;;;;;;;16.43;4.00;;;;;;;3.52;100.00;100129.22;5034751;23;25989;-70
2022/12/27 11:05:25;;;;;;;11.87;3.80;;;;;;;3.73;100.00;100111.91;5060238;23;20313;-72
2022/12/27 11:07:55;;;;;;;10.53;3.50;;;;;;;4.21;98.70;100122.50;5073637;23;20210;-70
2022/12/27 11:10:24;;;;;;;11.37;3.10;;;;;;;4.25;97.50;100120.47;5010804;23;21264;-61
2022/12/27 11:13:02;;;;;;;13.97;3.17;;;;;;;4.02;94.09;100122.97;5018694;23;20282;-70
2022/12/27 11:15:32;;;;;;;12.93;2.57;;;;;;;3.85;95.56;100120.72;5100982;23;21325;-71
2022/12/27 11:18:03;;;;;;;13.73;2.97;;;;;;;3.82;95.11;100126.22;5005320;23;20206;-71
2022/12/27 11:20:37;;;;;;;12.77;3.30;;;;;;;3.91;95.01;100132.59;5059740;23;20807;-70
2022/12/27 11:23:09;;;;;;;12.80;3.43;;;;;;;3.82;96.98;100131.47;5072797;23;23508;-71
2022/12/27 11:25:48;;;;;;;9.53;3.60;;;;;;;3.70;95.70;100132.31;5027541;23;20320;-72
2022/12/27 11:28:38;;;;;;;13.57;3.47;;;;;;;3.67;96.80;100128.13;5089436;23;22882;-71
2022/12/27 11:31:09;;;;;;;11.90;3.10;;;;;;;3.77;95.25;100123.06;5101413;23;20871;-70
2022/12/27 11:33:53;;;;;;;14.57;2.93;;;;;;;3.73;93.83;100143.47;5040450;23;20214;-71
2022/12/27 11:36:37;;;;;;;12.23;3.60;;;;;;;3.85;92.60;100138.31;5040752;23;20210;-73
2022/12/27 11:39:04;;;;;;;13.03;3.33;;;;;;;3.86;93.04;100145.22;5055963;23;20683;-73
2022/12/27 11:41:47;;;;;;;9.83;2.80;;;;;;;3.86;92.86;100150.50;5238494;23;22677;-71
2022/12/27 11:44:21;;;;;;;8.87;2.70;;;;;;;3.62;93.97;100167.06;5141257;23;22917;-72
2022/12/27 11:46:57;;;;;;;12.53;3.07;;;;;;;3.46;93.45;100161.19;5081888;23;21272;-72
2022/12/27 11:49:32;;;;;;;14.20;3.20;;;;;;;3.26;94.30;100160.78;5131919;23;20211;-72
2022/12/27 11:52:22;;;;;;;14.97;3.23;;;;;;;3.37;94.80;100166.16;4977211;23;20266;-71
2022/12/27 11:54:51;;;;;;;14.27;3.43;;;;;;;3.28;95.50;100166.78;5067672;23;20217;-70
2022/12/27 11:57:18;;;;;;;14.00;3.10;;;;;;;3.26;95.33;100163.41;4992437;23;20212;-71
2022/12/27 11:59:53;;;;;;;17.67;3.47;;;;;;;3.29;95.07;100170.25;4989096;23;23660;-70
2022/12/27 12:02:26;;;;;;;13.13;4.00;;;;;;;3.26;95.42;100178.34;5020266;23;20210;-73
2022/12/27 12:05:28;;;;;;;12.83;3.10;;;;;;;3.25;95.59;100184.53;5043980;23;20210;-73
2022/12/27 12:08:37;;;;;;;9.20;3.67;;;;;;;3.11;96.91;100180.22;4995479;23;20205;-70
2022/12/27 12:11:12;;;;;;;19.43;3.70;;;;;;;3.14;97.57;100185.28;5094722;23;20259;-71
2022/12/27 12:13:56;;;;;;;10.20;3.53;;;;;;;3.08;98.11;100180.44;4994566;23;20990;-71
2022/12/27 12:16:49;;;;;;;14.43;3.57;;;;;;;2.96;97.60;100169.78;4999407;23;22834;-72
2022/12/27 12:19:47;;;;;;;10.50;3.43;;;;;;;2.92;97.48;100184.06;5001129;23;20214;-70
2022/12/27 12:22:32;;;;;;;21.57;3.80;;;;;;;2.94;97.84;100195.34;5070717;23;20293;-70
2022/12/27 12:25:14;;;;;;;14.33;3.80;;;;;;;2.91;97.51;100206.06;4995400;23;20284;-72
2022/12/27 12:28:07;;;;;;;8.37;3.10;;;;;;;2.92;96.87;100181.44;4995738;23;20276;-76
2022/12/27 12:31:26;;;;;;;12.13;3.50;;;;;;;2.85;97.54;100201.19;5084279;23;20598;-74
2022/12/27 12:34:31;;;;;;;14.40;3.57;;;;;;;2.85;97.91;100200.38;5062236;23;21834;-76
2022/12/27 12:37:20;;;;;;;16.53;4.60;;;;;;;2.91;97.28;100203.44;5039093;23;20251;-73
2022/12/27 12:40:05;;;;;;;15.77;5.30;;;;;;;2.87;98.52;100215.09;5009762;23;20392;-74
2022/12/27 12:42:51;;;;;;;17.50;5.67;;;;;;;2.87;97.99;100211.63;5045963;23;20626;-76
2022/12/27 12:45:19;;;;;;;15.63;5.33;;;;;;;2.85;98.06;100209.09;5003736;23;21593;-76
2022/12/27 12:48:20;;;;;;;16.93;6.83;;;;;;;2.80;98.14;100205.91;4966531;23;20206;-73
2022/12/27 12:51:24;;;;;;;26.50;7.13;;;;;;;2.81;98.30;100207.63;5003111;23;21479;-72
2022/12/27 12:54:00;;;;;;;14.97;6.07;;;;;;;2.78;99.38;100214.84;5060344;23;20218;-75
2022/12/27 12:56:41;;;;;;;10.53;4.60;;;;;;;2.77;99.73;100221.91;5088422;23;20214;-72
2022/12/27 12:59:24;;;;;;;14.33;5.03;;;;;;;2.77;100.00;100214.00;5068149;23;20224;-73
2022/12/27 13:02:08;;;;;;;11.17;4.60;;;;;;;2.72;100.00;100218.72;5105810;23;20204;-74
2022/12/27 13:05:17;;;;;;;12.33;4.33;;;;;;;2.69;100.00;100218.91;5107116;23;20835;-73
2022/12/27 13:08:06;;;;;;;14.20;5.60;;;;;;;2.73;100.00;100202.84;5050370;23;20228;-75
2022/12/27 13:11:07;;;;;;;18.57;5.07;;;;;;;2.72;100.00;100210.84;4993863;23;20729;-72
2022/12/27 13:13:55;;;;;;;12.77;4.60;;;;;;;2.75;100.00;100213.28;4986784;23;22318;-74
2022/12/27 13:16:39;;;;;;;21.43;4.87;;;;;;;2.72;100.00;100202.97;5016800;23;20275;-75
2022/12/27 13:19:43;;;;;;;13.73;4.63;;;;;;;2.76;100.00;100209.69;5137443;23;22223;-73
2022/12/27 13:22:42;;;;;;;15.90;5.53;;;;;;;2.70;100.00;100210.09;5035846;23;20203;-74
2022/12/27 13:25:27;;;;;;;15.90;5.00;;;;;;;2.72;100.00;100213.47;5024367;23;21034;-75
2022/12/27 13:28:32;;;;;;;17.90;5.57;;;;;;;2.75;100.00;100214.09;4981113;23;20245;-75
2022/12/27 13:31:17;;;;;;;29.00;5.80;;;;;;;2.75;100.00;100221.16;5060348;23;25223;-75
2022/12/27 13:34:26;;;;;;;14.83;5.73;;;;;;;2.66;100.00;100219.97;5026542;23;20228;-75